createdAt,value
2023-04-18T00:02:15.857Z,7.55
2023-04-18T00:04:46.345Z,7.60
2023-04-18T00:07:16.483Z,7.45
2023-04-18T00:09:44.792Z,7.32
2023-04-18T00:12:13.403Z,7.46
2023-04-18T00:14:41.760Z,7.48
2023-04-18T00:17:11.474Z,7.42
2023-04-18T00:19:43.710Z,7.32
2023-04-18T00:22:13.191Z,7.43
2023-04-18T00:24:41.272Z,7.43
2023-04-18T00:27:10.170Z,7.46
2023-04-18T00:29:38.078Z,7.48
2023-04-18T00:32:06.759Z,7.59
2023-04-18T00:34:36.666Z,7.53
2023-04-18T00:37:04.482Z,7.55
2023-04-18T00:39:32.401Z,7.46
2023-04-18T00:42:01.740Z,7.52
2023-04-18T00:44:29.703Z,7.70
2023-04-18T00:46:58.721Z,7.69
2023-04-18T00:49:28.681Z,7.66
2023-04-18T00:51:58.432Z,7.71
2023-04-18T00:54:28.573Z,7.77
2023-04-18T00:56:57.721Z,7.81
2023-04-18T00:59:25.655Z,7.91
2023-04-18T01:01:54.624Z,7.86
2023-04-18T01:04:23.383Z,7.88
2023-04-18T01:06:51.577Z,7.86
2023-04-18T01:09:22.767Z,7.87
2023-04-18T01:11:53.284Z,7.78
2023-04-18T01:14:22.621Z,7.84
2023-04-18T01:16:50.740Z,7.67
2023-04-18T01:19:20.265Z,7.65
2023-04-18T01:21:49.292Z,7.76
2023-04-18T01:24:18.937Z,7.95
2023-04-18T01:26:49.723Z,7.94
2023-04-18T01:29:17.693Z,7.76
2023-04-18T01:31:46.339Z,7.83
2023-04-18T01:34:18.246Z,7.73
2023-04-18T01:36:47.045Z,7.80
2023-04-18T01:39:15.964Z,7.87
2023-04-18T01:41:45.403Z,7.77
2023-04-18T01:44:14.149Z,7.81
2023-04-18T01:46:43.295Z,7.93
2023-04-18T01:49:11.548Z,7.94
2023-04-18T01:51:39.977Z,7.83
2023-04-18T01:54:08.791Z,7.73
2023-04-18T01:56:36.719Z,7.86
2023-04-18T01:59:06.551Z,7.71
2023-04-18T02:01:35.740Z,7.71
2023-04-18T02:04:03.777Z,7.69
2023-04-18T02:06:32.228Z,7.76
2023-04-18T02:09:01.517Z,7.84
2023-04-18T02:11:29.490Z,7.74
2023-04-18T02:13:59.538Z,7.78
2023-04-18T02:16:29.853Z,7.74
2023-04-18T02:18:57.892Z,7.78
2023-04-18T02:21:26.314Z,7.80
2023-04-18T02:23:54.708Z,7.73
2023-04-18T02:26:23.181Z,7.81
2023-04-18T02:28:51.097Z,7.74
2023-04-18T02:31:19.973Z,7.70
2023-04-18T02:33:49.316Z,7.71
2023-04-18T02:36:17.719Z,7.65
2023-04-18T02:38:47.597Z,7.73
2023-04-18T02:41:19.478Z,7.76
2023-04-18T02:43:48.655Z,7.62
2023-04-18T02:46:18.133Z,7.60
2023-04-18T02:48:50.861Z,7.76
2023-04-18T02:51:22.108Z,7.63
2023-04-18T02:53:55.386Z,7.60
2023-04-18T02:56:24.451Z,7.59
2023-04-18T02:59:11.476Z,7.76
2023-04-18T03:02:02.432Z,7.84
2023-04-18T03:04:33.397Z,7.83
2023-04-18T03:07:04.311Z,7.69
2023-04-18T03:09:36.377Z,7.69
2023-04-18T03:12:12.624Z,7.70
2023-04-18T03:14:40.759Z,7.70
2023-04-18T03:17:09.447Z,7.70
2023-04-18T03:19:43.557Z,7.71
2023-04-18T03:22:15.107Z,7.74
2023-04-18T03:24:51.673Z,7.65
2023-04-18T03:27:20.969Z,7.65
2023-04-18T03:29:49.554Z,7.62
2023-04-18T03:32:18.879Z,7.66
2023-04-18T03:34:48.492Z,7.62
2023-04-18T03:37:18.388Z,7.59
2023-04-18T03:39:51.507Z,7.52
2023-04-18T03:42:20.754Z,7.53
2023-04-18T03:44:50.036Z,7.48
2023-04-18T03:47:18.191Z,7.46
2023-04-18T03:49:52.026Z,7.35
2023-04-18T03:52:20.228Z,7.45
2023-04-18T03:54:48.925Z,7.43
2023-04-18T03:57:20.126Z,7.48
2023-04-18T03:59:49.160Z,7.41
2023-04-18T04:02:17.220Z,7.43
2023-04-18T04:04:45.775Z,7.41
2023-04-18T04:07:16.447Z,7.39
2023-04-18T04:09:44.499Z,7.34
2023-04-18T04:12:12.587Z,7.29
2023-04-18T04:14:41.516Z,7.32
2023-04-18T04:17:10.357Z,7.25
2023-04-18T04:19:40.616Z,7.24
2023-04-18T04:22:17.108Z,7.32
2023-04-18T04:24:47.260Z,7.31
2023-04-18T04:27:20.542Z,7.26
2023-04-18T04:29:50.352Z,7.24
2023-04-18T04:32:20.617Z,7.18
2023-04-18T04:34:49.911Z,7.09
2023-04-18T04:37:20.165Z,7.25
2023-04-18T04:40:17.740Z,7.28
2023-04-18T04:42:56.843Z,7.21
2023-04-18T04:45:31.231Z,7.11
2023-04-18T04:48:00.265Z,7.08
2023-04-18T04:50:28.292Z,7.17
2023-04-18T04:52:58.114Z,7.24
2023-04-18T04:55:26.764Z,7.19
2023-04-18T04:57:56.250Z,7.14
2023-04-18T05:00:44.506Z,7.17
2023-04-18T05:03:12.773Z,7.18
2023-04-18T05:05:40.930Z,7.24
2023-04-18T05:08:11.337Z,7.18
2023-04-18T05:10:39.172Z,7.26
2023-04-18T05:13:07.080Z,7.21
2023-04-18T05:15:36.217Z,7.35
2023-04-18T05:18:04.368Z,7.31
2023-04-18T05:20:32.713Z,7.26
2023-04-18T05:23:01.014Z,7.08
2023-04-18T05:25:32.192Z,7.07
2023-04-18T05:28:01.463Z,7.08
2023-04-18T05:30:29.830Z,7.22
2023-04-18T05:32:58.263Z,7.18
2023-04-18T05:35:26.308Z,7.07
2023-04-18T05:37:55.165Z,7.18
2023-04-18T05:40:23.220Z,7.01
2023-04-18T05:42:53.113Z,7.00
2023-04-18T05:45:21.488Z,7.03
2023-04-18T05:47:49.493Z,7.08
2023-04-18T05:50:18.083Z,7.07
2023-04-18T05:52:46.466Z,7.12
2023-04-18T05:55:14.435Z,7.07
2023-04-18T05:57:42.876Z,7.01
2023-04-18T06:00:14.049Z,7.05
2023-04-18T06:02:42.578Z,7.05
2023-04-18T06:05:11.997Z,7.21
2023-04-18T06:07:40.677Z,7.14
2023-04-18T06:10:13.829Z,7.26
2023-04-18T06:12:41.824Z,7.26
2023-04-18T06:15:13.424Z,7.36
2023-04-18T06:17:41.581Z,7.45
2023-04-18T06:20:11.250Z,7.46
2023-04-18T06:22:41.644Z,7.39
2023-04-18T06:25:10.700Z,7.38
2023-04-18T06:27:39.261Z,7.26
2023-04-18T06:30:08.851Z,7.39
2023-04-18T06:32:38.729Z,7.32
2023-04-18T06:35:07.985Z,7.29
2023-04-18T06:37:36.981Z,7.34
2023-04-18T06:40:05.773Z,7.43
2023-04-18T06:42:34.697Z,7.45
2023-04-18T06:45:04.383Z,7.43
2023-04-18T06:47:32.447Z,7.34
2023-04-18T06:50:03.208Z,7.45
2023-04-18T06:52:31.034Z,7.35
2023-04-18T06:54:59.704Z,7.36
2023-04-18T06:57:27.631Z,7.39
2023-04-18T06:59:55.450Z,7.55
2023-04-18T07:02:24.499Z,7.55
2023-04-18T07:04:52.440Z,7.53
2023-04-18T07:07:22.674Z,7.69
2023-04-18T07:09:52.729Z,7.66
2023-04-18T07:12:21.293Z,7.87
2023-04-18T07:14:49.708Z,7.76
2023-04-18T07:17:17.897Z,7.73
2023-04-18T07:19:46.294Z,7.99
2023-04-18T07:22:15.075Z,8.20
2023-04-18T07:24:44.413Z,8.29
2023-04-18T07:27:13.280Z,8.39
2023-04-18T07:29:41.126Z,8.61
2023-04-18T07:32:11.047Z,8.52
2023-04-18T07:34:40.277Z,8.53
2023-04-18T07:37:08.664Z,8.63
2023-04-18T07:39:39.246Z,8.49
2023-04-18T07:42:08.613Z,8.61
2023-04-18T07:44:36.954Z,8.83
2023-04-18T07:47:05.531Z,9.07
2023-04-18T07:49:33.540Z,8.85
2023-04-18T07:52:01.468Z,8.95
2023-04-18T07:54:30.344Z,8.66
2023-04-18T07:56:59.150Z,9.05
2023-04-18T07:59:30.389Z,9.15
2023-04-18T08:01:58.318Z,9.28
2023-04-18T08:04:29.836Z,9.37
2023-04-18T08:06:58.988Z,9.43
2023-04-18T08:09:27.321Z,9.30
2023-04-18T08:11:57.887Z,9.39
2023-04-18T08:14:26.274Z,9.61
2023-04-18T08:16:56.294Z,9.74
2023-04-18T08:19:24.369Z,9.35
2023-04-18T08:21:52.735Z,9.50
2023-04-18T08:24:21.657Z,9.40
2023-04-18T08:26:49.578Z,9.23
2023-04-18T08:29:18.057Z,9.22
2023-04-18T08:31:46.565Z,9.37
2023-04-18T08:34:15.941Z,9.39
2023-04-18T08:36:44.398Z,9.48
2023-04-18T08:39:12.986Z,9.67
2023-04-18T08:41:44.165Z,9.64
2023-04-18T08:44:13.664Z,10.10
2023-04-18T08:46:41.770Z,9.91
2023-04-18T08:49:11.987Z,9.98
2023-04-18T08:51:43.194Z,9.94
2023-04-18T08:54:12.800Z,9.88
2023-04-18T08:56:40.979Z,9.94
2023-04-18T08:59:09.606Z,9.89
2023-04-18T09:02:02.017Z,9.85
2023-04-18T09:04:40.891Z,9.88
2023-04-18T09:07:12.383Z,9.80
2023-04-18T09:09:45.428Z,9.57
2023-04-18T09:12:15.798Z,9.95
2023-04-18T09:14:45.552Z,10.19
2023-04-18T09:17:16.831Z,10.08
2023-04-18T09:19:50.261Z,9.97
2023-04-18T09:22:20.434Z,10.19
2023-04-18T09:24:55.453Z,10.49
2023-04-18T09:27:25.361Z,10.26
2023-04-18T09:29:55.906Z,10.29
2023-04-18T09:32:31.191Z,10.56
2023-04-18T09:35:03.910Z,10.53
2023-04-18T09:37:34.832Z,10.44
2023-04-18T09:40:17.965Z,10.47
2023-04-18T09:42:47.042Z,10.54
2023-04-18T09:45:15.520Z,10.67
2023-04-18T09:47:43.966Z,10.98
2023-04-18T09:50:12.631Z,11.12
2023-04-18T09:52:43.560Z,11.20
2023-04-18T09:55:13.838Z,11.09
2023-04-18T09:57:43.573Z,11.33
2023-04-18T10:00:14.684Z,11.15
2023-04-18T10:02:50.372Z,11.24
2023-04-18T10:05:21.542Z,11.53
2023-04-18T10:07:51.758Z,11.41
2023-04-18T10:10:20.820Z,11.82
2023-04-18T10:12:51.163Z,12.02
2023-04-18T10:15:21.217Z,11.63
2023-04-18T10:18:04.297Z,11.96
2023-04-18T10:20:36.124Z,11.99
2023-04-18T10:23:37.079Z,11.41
2023-04-18T10:26:06.035Z,11.74
2023-04-18T10:28:55.222Z,11.33
2023-04-18T10:31:24.727Z,11.63
2023-04-18T10:34:04.037Z,11.47
2023-04-18T10:37:04.719Z,11.79
2023-04-18T10:39:49.508Z,11.99
2023-04-18T10:42:19.433Z,11.78
2023-04-18T10:45:22.118Z,12.57
2023-04-18T10:47:50.652Z,12.85
2023-04-18T10:50:19.181Z,13.16
2023-04-18T10:52:47.580Z,12.97
2023-04-18T10:55:20.307Z,13.23
2023-04-18T10:57:51.005Z,13.43
2023-04-18T11:00:21.592Z,13.48
2023-04-18T11:02:56.675Z,13.89
2023-04-18T11:05:26.900Z,13.79
2023-04-18T11:07:57.224Z,13.12
2023-04-18T11:10:28.537Z,13.16
2023-04-18T11:12:57.377Z,13.90
2023-04-18T11:15:27.969Z,14.06
2023-04-18T11:18:02.450Z,13.69
2023-04-18T11:20:31.362Z,14.10
2023-04-18T11:23:01.454Z,13.86
2023-04-18T11:25:32.248Z,14.05
2023-04-18T11:28:02.988Z,14.05
2023-04-18T11:30:38.565Z,13.68
2023-04-18T11:33:10.499Z,13.75
2023-04-18T11:35:39.684Z,13.95
2023-04-18T11:38:07.943Z,13.10
2023-04-18T11:40:38.959Z,13.09
2023-04-18T11:43:09.469Z,13.55
2023-04-18T11:45:38.290Z,14.17
2023-04-18T11:48:06.377Z,13.82
2023-04-18T11:50:37.712Z,13.51
2023-04-18T11:53:06.518Z,13.51
2023-04-18T11:55:34.541Z,12.91
2023-04-18T11:58:04.919Z,13.26
2023-04-18T12:00:35.287Z,13.64
2023-04-18T12:03:05.986Z,13.78
2023-04-18T12:05:36.211Z,13.38
2023-04-18T12:08:08.896Z,13.90
2023-04-18T12:10:37.824Z,13.47
2023-04-18T12:13:09.610Z,13.55
2023-04-18T12:15:40.911Z,13.54
2023-04-18T12:18:09.542Z,13.53
2023-04-18T12:20:39.604Z,13.40
2023-04-18T12:23:08.359Z,13.28
2023-04-18T12:25:36.527Z,13.30
2023-04-18T12:28:15.894Z,13.36
2023-04-18T12:30:45.792Z,13.37
2023-04-18T12:33:13.728Z,13.02
2023-04-18T12:35:42.999Z,13.13
2023-04-18T12:38:11.622Z,13.20
2023-04-18T12:40:41.001Z,13.74
2023-04-18T12:43:10.147Z,13.74
2023-04-18T12:45:38.615Z,13.54
2023-04-18T12:48:08.633Z,13.46
2023-04-18T12:50:36.411Z,13.33
2023-04-18T12:53:05.804Z,13.51
2023-04-18T12:55:34.278Z,13.50
2023-04-18T12:58:02.814Z,13.26
2023-04-18T13:00:32.508Z,13.28
2023-04-18T13:03:01.525Z,13.17
2023-04-18T13:05:33.460Z,13.07
2023-04-18T13:08:15.319Z,13.03
2023-04-18T13:10:46.603Z,12.74
2023-04-18T13:13:14.610Z,12.96
2023-04-18T13:15:43.539Z,12.95
2023-04-18T13:18:11.571Z,13.09
2023-04-18T13:20:41.191Z,12.99
2023-04-18T13:23:10.059Z,12.82
2023-04-18T13:25:38.026Z,12.78
2023-04-18T13:28:07.191Z,12.64
2023-04-18T13:30:36.689Z,12.52
2023-04-18T13:33:04.775Z,12.62
2023-04-18T13:35:33.660Z,12.74
2023-04-18T13:38:04.576Z,12.74
2023-04-18T13:40:33.949Z,12.91
2023-04-18T13:43:02.481Z,12.97
2023-04-18T13:45:30.431Z,12.71
2023-04-18T13:47:59.530Z,12.99
2023-04-18T13:50:27.919Z,13.20
2023-04-18T13:52:56.112Z,13.64
2023-04-18T13:55:25.962Z,13.92
2023-04-18T13:57:53.703Z,13.86
2023-04-18T14:00:22.388Z,13.46
2023-04-18T14:02:51.236Z,13.69
2023-04-18T14:05:19.816Z,13.64
2023-04-18T14:07:49.627Z,13.76
2023-04-18T14:10:17.513Z,13.95
2023-04-18T14:12:47.718Z,13.71
2023-04-18T14:15:16.849Z,13.34
2023-04-18T14:17:45.682Z,13.46
2023-04-18T14:20:16.037Z,13.36
2023-04-18T14:22:44.039Z,13.09
2023-04-18T14:25:14.325Z,13.46
2023-04-18T14:27:42.722Z,13.55
2023-04-18T14:30:13.512Z,14.79
2023-04-18T14:32:42.370Z,14.21
2023-04-18T14:35:11.366Z,13.83
2023-04-18T14:37:39.688Z,13.13
2023-04-18T14:40:11.644Z,14.00
2023-04-18T14:42:39.563Z,17.96
2023-04-18T14:45:11.690Z,19.10
2023-04-18T14:47:42.027Z,19.32
2023-04-18T14:50:12.821Z,19.34
2023-04-18T14:52:41.272Z,19.21
2023-04-18T14:55:10.819Z,17.97
2023-04-18T14:57:40.421Z,19.22
2023-04-18T15:00:11.261Z,18.89
2023-04-18T15:02:42.092Z,19.11
2023-04-18T15:05:12.212Z,18.04
2023-04-18T15:07:41.334Z,19.81
2023-04-18T15:10:12.560Z,19.53
2023-04-18T15:12:42.127Z,18.53
2023-04-18T15:15:10.822Z,17.15
2023-04-18T15:17:39.336Z,18.45
2023-04-18T15:20:10.416Z,19.31
2023-04-18T15:22:38.539Z,18.84
2023-04-18T15:25:07.846Z,19.10
2023-04-18T15:27:35.802Z,19.76
2023-04-18T15:30:04.248Z,19.04
2023-04-18T15:32:33.395Z,20.22
2023-04-18T15:35:01.321Z,20.33
2023-04-18T15:37:31.004Z,19.49
2023-04-18T15:39:59.280Z,17.59
2023-04-18T15:42:28.481Z,18.62
2023-04-18T15:44:56.375Z,19.58
2023-04-18T15:47:24.695Z,19.65
2023-04-18T15:49:54.860Z,18.86
2023-04-18T15:52:22.770Z,18.76
2023-04-18T15:54:53.413Z,19.95
2023-04-18T15:57:22.615Z,19.93
2023-04-18T15:59:50.508Z,19.56
2023-04-18T16:02:18.975Z,19.55
2023-04-18T16:04:47.461Z,19.45
2023-04-18T16:07:16.196Z,18.66
2023-04-18T16:09:44.093Z,18.39
2023-04-18T16:12:13.834Z,17.72
2023-04-18T16:14:42.218Z,18.05
2023-04-18T16:17:10.157Z,18.81
2023-04-18T16:19:41.368Z,19.25
2023-04-18T16:22:10.559Z,19.07
2023-04-18T16:24:40.864Z,19.06
2023-04-18T16:27:10.842Z,19.58
2023-04-18T16:29:40.163Z,17.83
2023-04-18T16:32:08.534Z,18.24
2023-04-18T16:34:37.322Z,17.20
2023-04-18T16:37:05.724Z,16.25
2023-04-18T16:39:33.723Z,16.83
2023-04-18T16:42:02.889Z,16.97
2023-04-18T16:44:33.123Z,16.37
2023-04-18T16:47:06.066Z,16.72
2023-04-18T16:49:35.000Z,16.06
2023-04-18T16:52:02.956Z,15.49
2023-04-18T16:54:31.418Z,14.33
2023-04-18T16:56:59.829Z,13.76
2023-04-18T16:59:27.815Z,13.27
2023-04-18T17:01:57.048Z,13.31
2023-04-18T17:04:27.610Z,13.09
2023-04-18T17:06:55.664Z,13.21
2023-04-18T17:09:26.620Z,12.81
2023-04-18T17:11:54.593Z,12.85
2023-04-18T17:14:24.281Z,12.91
2023-04-18T17:16:53.715Z,12.79
2023-04-18T17:19:22.188Z,12.12
2023-04-18T17:21:51.633Z,12.45
2023-04-18T17:24:22.870Z,12.41
2023-04-18T17:26:51.099Z,12.47
2023-04-18T17:29:19.640Z,12.27
2023-04-18T17:31:49.548Z,11.99
2023-04-18T17:34:19.258Z,11.98
2023-04-18T17:36:47.231Z,11.68
2023-04-18T17:39:18.098Z,11.88
2023-04-18T17:41:46.193Z,11.83
2023-04-18T17:44:14.157Z,11.86
2023-04-18T17:46:43.018Z,11.74
2023-04-18T17:49:11.380Z,11.78
2023-04-18T17:51:40.504Z,11.74
2023-04-18T17:54:10.690Z,11.48
2023-04-18T17:56:41.027Z,11.47
2023-04-18T17:59:10.297Z,11.44
2023-04-18T18:01:38.965Z,11.33
2023-04-18T18:04:07.120Z,11.34
2023-04-18T18:06:36.248Z,11.37
2023-04-18T18:09:04.294Z,11.37
2023-04-18T18:11:33.131Z,11.26
2023-04-18T18:14:02.411Z,11.13
2023-04-18T18:16:31.522Z,11.03
2023-04-18T18:18:59.640Z,11.01
2023-04-18T18:21:28.739Z,10.88
2023-04-18T18:23:57.680Z,10.86
2023-04-18T18:26:33.188Z,10.89
2023-04-18T18:29:09.514Z,10.72
2023-04-18T18:31:37.763Z,10.74
2023-04-18T18:34:06.149Z,10.77
2023-04-18T18:36:34.943Z,10.71
2023-04-18T18:39:03.747Z,10.67
2023-04-18T18:41:31.877Z,10.68
2023-04-18T18:44:00.939Z,10.68
2023-04-18T18:46:31.120Z,10.82
2023-04-18T18:48:59.178Z,10.75
2023-04-18T18:51:29.677Z,10.82
2023-04-18T18:53:57.976Z,10.91
2023-04-18T18:56:26.036Z,11.08
2023-04-18T18:58:55.922Z,11.19
2023-04-18T19:01:24.184Z,11.33
2023-04-18T19:03:54.180Z,11.20
2023-04-18T19:06:23.824Z,11.23
2023-04-18T19:08:51.924Z,11.43
2023-04-18T19:11:21.061Z,11.48
2023-04-18T19:13:52.658Z,11.53
2023-04-18T19:16:20.924Z,11.47
2023-04-18T19:18:50.655Z,11.48
2023-04-18T19:21:21.231Z,11.48
2023-04-18T19:23:49.503Z,11.38
2023-04-18T19:26:17.958Z,11.43
2023-04-18T19:28:46.008Z,11.46
2023-04-18T19:31:14.993Z,11.41
2023-04-18T19:33:43.024Z,11.46
2023-04-18T19:36:11.401Z,11.40
2023-04-18T19:38:43.267Z,11.46
2023-04-18T19:41:11.602Z,11.40
2023-04-18T19:43:41.172Z,11.40
2023-04-18T19:46:09.273Z,11.41
2023-04-18T19:48:37.529Z,11.41
2023-04-18T19:51:06.028Z,11.33
2023-04-18T19:53:35.511Z,11.30
2023-04-18T19:56:05.067Z,11.41
2023-04-18T19:58:38.429Z,11.34
2023-04-18T20:01:07.647Z,11.26
2023-04-18T20:03:36.560Z,11.34
2023-04-18T20:06:06.817Z,11.44
2023-04-18T20:08:36.874Z,11.46
2023-04-18T20:11:08.762Z,11.37
2023-04-18T20:13:37.596Z,11.41
2023-04-18T20:16:05.995Z,11.44
2023-04-18T20:18:36.247Z,11.47
2023-04-18T20:21:04.422Z,11.46
2023-04-18T20:23:33.317Z,11.54
2023-04-18T20:26:01.310Z,11.41
2023-04-18T20:28:31.635Z,11.44
2023-04-18T20:31:20.687Z,11.44
2023-04-18T20:33:49.081Z,11.48
2023-04-18T20:36:17.680Z,11.54
2023-04-18T20:38:47.229Z,11.60
2023-04-18T20:41:18.568Z,11.50
2023-04-18T20:43:47.994Z,11.57
2023-04-18T20:46:17.921Z,11.54
2023-04-18T20:48:45.914Z,11.50
2023-04-18T20:51:14.324Z,11.50
2023-04-18T20:53:43.471Z,11.53
2023-04-18T20:56:11.426Z,11.57
2023-04-18T20:58:40.596Z,11.55
2023-04-18T21:01:10.379Z,11.57
2023-04-18T21:03:38.500Z,11.48
2023-04-18T21:06:06.825Z,11.51
2023-04-18T21:08:38.325Z,11.48
2023-04-18T21:11:06.883Z,11.54
2023-04-18T21:13:35.907Z,11.58
2023-04-18T21:16:07.533Z,11.51
2023-04-18T21:18:37.986Z,11.51
2023-04-18T21:21:05.837Z,11.53
2023-04-18T21:23:33.970Z,11.53
2023-04-18T21:26:02.830Z,11.53
2023-04-18T21:28:30.908Z,11.46
2023-04-18T21:30:59.556Z,11.48
2023-04-18T21:33:28.250Z,11.51
2023-04-18T21:35:58.035Z,11.50
2023-04-18T21:38:26.867Z,11.50
2023-04-18T21:40:54.805Z,11.38
2023-04-18T21:43:23.778Z,11.51
2023-04-18T21:45:52.400Z,11.51
2023-04-18T21:48:20.657Z,11.46
2023-04-18T21:50:55.613Z,11.43
2023-04-18T21:53:26.684Z,11.33
2023-04-18T21:55:54.649Z,11.36
2023-04-18T21:58:23.618Z,11.41
2023-04-18T22:00:51.780Z,11.44
2023-04-18T22:03:20.348Z,11.47
2023-04-18T22:05:48.834Z,11.44
2023-04-18T22:08:16.901Z,11.41
2023-04-18T22:10:50.900Z,11.43
2023-04-18T22:13:19.045Z,11.36
2023-04-18T22:15:47.033Z,11.51
2023-04-18T22:18:16.626Z,11.41
2023-04-18T22:20:44.620Z,11.36
2023-04-18T22:23:13.537Z,11.36
2023-04-18T22:25:41.662Z,11.40
2023-04-18T22:28:13.482Z,11.30
2023-04-18T22:30:41.629Z,11.30
2023-04-18T22:33:10.650Z,11.22
2023-04-18T22:35:38.696Z,11.26
2023-04-18T22:38:06.834Z,11.22
2023-04-18T22:40:35.806Z,11.19
2023-04-18T22:43:03.785Z,11.15
2023-04-18T22:45:34.508Z,11.15
2023-04-18T22:48:03.429Z,11.13
2023-04-18T22:50:31.462Z,11.13
2023-04-18T22:53:00.464Z,11.06
2023-04-18T22:55:28.465Z,11.13
2023-04-18T22:57:57.172Z,11.02
2023-04-18T23:00:25.929Z,10.88
2023-04-18T23:02:55.462Z,10.92
2023-04-18T23:05:24.189Z,10.94
2023-04-18T23:07:52.586Z,10.89
2023-04-18T23:10:20.704Z,10.91
2023-04-18T23:12:49.087Z,10.79
2023-04-18T23:15:17.262Z,10.85
2023-04-18T23:17:45.679Z,10.82
2023-04-18T23:20:16.092Z,10.64
2023-04-18T23:22:44.615Z,10.50
2023-04-18T23:25:13.244Z,10.44
2023-04-18T23:27:41.279Z,10.39
2023-04-18T23:30:10.754Z,10.23
2023-04-18T23:32:38.809Z,10.19
2023-04-18T23:35:06.979Z,10.06
2023-04-18T23:37:36.849Z,9.98
2023-04-18T23:40:06.853Z,9.95
2023-04-18T23:42:35.830Z,9.92
2023-04-18T23:45:06.156Z,9.82
2023-04-18T23:47:34.037Z,9.82
2023-04-18T23:50:02.206Z,9.87
2023-04-18T23:52:31.189Z,9.91
2023-04-18T23:55:02.243Z,9.92
2023-04-18T23:57:30.802Z,9.95
